Time;durP1;ratioP1;P1;durP2;ratioP2;P2;SDS_P1;SDS_P2;PMS_P1;PMS_P2;Temp;Humidity;BMP_temperature;BMP_pressure;BME280_temperature;BME280_humidity;BME280_pressure;Samples;Min_cycle;Max_cycle;Signal;HPM_P1;HPM_P2
2022/01/07 00:00:22;;;;;;;10.30;2.88;;;6.80;92.20;;;;;;5050874;28;20032;-70
2022/01/07 00:02:51;;;;;;;16.42;4.45;;;6.80;92.30;;;;;;5054497;28;20078;-70
2022/01/07 00:05:17;;;;;;;6.55;3.03;;;6.80;92.20;;;;;;5053702;28;20103;-70
2022/01/07 00:07:42;;;;;;;2.42;1.67;;;6.80;92.20;;;;;;5031984;28;20049;-70
2022/01/07 00:10:11;;;;;;;10.63;3.50;;;6.80;92.20;;;;;;5026564;28;20057;-70
2022/01/07 00:12:36;;;;;;;8.23;2.55;;;6.80;92.30;;;;;;5037894;28;20555;-70
2022/01/07 00:15:04;;;;;;;7.38;2.83;;;6.80;92.60;;;;;;5027812;28;20032;-70
2022/01/07 00:17:30;;;;;;;11.95;2.15;;;6.80;92.20;;;;;;5054470;28;20033;-70
2022/01/07 00:19:56;;;;;;;8.02;3.15;;;6.80;92.20;;;;;;5051514;28;20169;-70
2022/01/07 00:22:22;;;;;;;6.65;2.97;;;6.80;92.20;;;;;;5054329;28;20056;-70
2022/01/07 00:24:48;;;;;;;8.43;3.15;;;6.80;92.20;;;;;;5053420;28;20029;-70
2022/01/07 00:27:14;;;;;;;6.25;2.97;;;6.80;92.10;;;;;;5027320;28;20044;-70
2022/01/07 00:29:40;;;;;;;12.48;3.72;;;6.70;92.20;;;;;;5053891;28;20067;-70
2022/01/07 00:32:06;;;;;;;7.03;3.17;;;6.70;92.20;;;;;;5051353;28;20370;-70
2022/01/07 00:34:32;;;;;;;9.30;3.20;;;6.70;92.20;;;;;;5029764;28;20454;-70
2022/01/07 00:36:57;;;;;;;13.27;4.20;;;6.70;92.20;;;;;;5050840;28;20033;-70
2022/01/07 00:39:23;;;;;;;12.93;4.25;;;6.60;92.20;;;;;;5013491;28;20116;-70
2022/01/07 00:41:52;;;;;;;7.70;4.25;;;6.50;92.30;;;;;;5032898;28;20026;-70
2022/01/07 00:44:17;;;;;;;10.85;4.50;;;6.50;92.40;;;;;;5025104;28;20037;-70
2022/01/07 00:46:43;;;;;;;13.35;3.67;;;6.50;92.50;;;;;;5018190;28;20053;-70
2022/01/07 00:49:09;;;;;;;11.82;4.28;;;6.40;92.60;;;;;;5044113;28;20053;-70
2022/01/07 00:51:35;;;;;;;9.65;3.38;;;6.40;92.70;;;;;;5017419;28;20061;-70
2022/01/07 00:54:00;;;;;;;11.55;4.60;;;6.30;92.80;;;;;;5021878;28;20076;-70
2022/01/07 00:56:26;;;;;;;10.95;4.45;;;6.30;92.90;;;;;;5036673;28;20029;-70
2022/01/07 00:58:51;;;;;;;10.15;3.80;;;6.30;92.90;;;;;;5039956;28;20013;-70
2022/01/07 01:01:17;;;;;;;14.70;4.15;;;6.30;92.90;;;;;;5041319;28;20048;-70
2022/01/07 01:03:43;;;;;;;12.68;3.30;;;6.30;92.90;;;;;;5024671;28;20063;-70
2022/01/07 01:06:09;;;;;;;8.43;3.70;;;6.30;93.00;;;;;;5041717;28;20035;-70
2022/01/07 01:08:35;;;;;;;7.10;2.92;;;6.30;93.10;;;;;;5037353;28;20036;-70
2022/01/07 01:11:00;;;;;;;14.02;3.72;;;6.30;93.10;;;;;;5041787;28;20034;-70
2022/01/07 01:13:26;;;;;;;6.93;3.25;;;6.30;93.10;;;;;;5051823;28;20021;-70
2022/01/07 01:15:52;;;;;;;9.00;2.97;;;6.30;93.10;;;;;;5050590;28;20438;-70
2022/01/07 01:18:18;;;;;;;10.52;3.63;;;6.30;93.10;;;;;;5052666;28;20032;-70
2022/01/07 01:20:49;;;;;;;4.38;2.40;;;6.30;93.20;;;;;;5053084;28;20033;-70
2022/01/07 01:23:15;;;;;;;10.23;3.10;;;6.30;93.10;;;;;;5027193;28;20063;-70
2022/01/07 01:25:41;;;;;;;11.10;3.88;;;6.30;93.10;;;;;;5052481;28;20086;-70
2022/01/07 01:28:07;;;;;;;2.65;1.90;;;6.30;93.10;;;;;;5036981;28;20054;-70
2022/01/07 01:30:35;;;;;;;6.68;2.45;;;6.30;93.10;;;;;;5013085;28;20486;-70
2022/01/07 01:33:01;;;;;;;7.97;2.95;;;6.30;93.10;;;;;;5025053;28;20025;-70
2022/01/07 01:35:27;;;;;;;10.70;3.72;;;6.30;93.20;;;;;;5030035;28;20083;-70
2022/01/07 01:37:52;;;;;;;5.30;2.88;;;6.30;93.10;;;;;;5040218;28;20029;-70
2022/01/07 01:40:20;;;;;;;5.30;2.45;;;6.30;93.10;;;;;;5037986;28;20112;-70
2022/01/07 01:42:46;;;;;;;10.10;3.28;;;6.30;93.00;;;;;;5037744;28;20038;-70
2022/01/07 01:45:18;;;;;;;9.52;3.30;;;6.30;93.30;;;;;;5044534;28;20131;-70
2022/01/07 01:47:44;;;;;;;18.02;2.92;;;6.40;93.10;;;;;;5042697;28;20036;-69
2022/01/07 01:50:11;;;;;;;5.78;3.03;;;6.40;93.10;;;;;;5037688;28;20053;-70
2022/01/07 01:52:36;;;;;;;4.25;2.75;;;6.40;93.10;;;;;;5037498;28;20029;-70
2022/01/07 01:55:04;;;;;;;7.75;3.13;;;6.30;93.00;;;;;;5037858;28;20044;-70
2022/01/07 01:57:31;;;;;;;13.35;2.85;;;6.40;93.10;;;;;;5024922;28;20029;-70
2022/01/07 01:59:58;;;;;;;4.90;2.58;;;6.40;93.10;;;;;;5033625;28;20498;-70
2022/01/07 02:02:24;;;;;;;7.15;2.22;;;6.40;93.00;;;;;;5023922;28;20040;-70
2022/01/07 02:04:50;;;;;;;4.68;1.95;;;6.40;92.90;;;;;;5018420;28;20105;-70
2022/01/07 02:07:15;;;;;;;6.75;3.03;;;6.50;92.90;;;;;;5045407;28;20159;-70
2022/01/07 02:09:41;;;;;;;7.75;3.17;;;6.50;93.20;;;;;;5043266;28;20120;-70
2022/01/07 02:12:08;;;;;;;5.65;3.22;;;6.50;92.90;;;;;;5051544;28;20078;-70
2022/01/07 02:14:35;;;;;;;5.55;2.70;;;6.50;92.80;;;;;;5037521;28;20083;-70
2022/01/07 02:17:08;;;;;;;8.60;3.55;;;6.50;92.80;;;;;;5042734;28;20365;-70
2022/01/07 02:19:36;;;;;;;6.72;2.83;;;6.50;92.70;;;;;;5048724;28;20086;-70
2022/01/07 02:22:02;;;;;;;7.47;2.35;;;6.50;92.70;;;;;;5041182;28;20045;-70
2022/01/07 02:24:28;;;;;;;6.22;2.92;;;6.40;92.70;;;;;;5024274;28;20060;-70
2022/01/07 02:26:55;;;;;;;8.77;3.50;;;6.40;92.70;;;;;;5027577;28;20065;-70
2022/01/07 02:29:21;;;;;;;3.97;2.90;;;6.40;92.70;;;;;;5012372;28;20030;-70
2022/01/07 02:31:48;;;;;;;10.32;2.50;;;6.40;92.80;;;;;;5032070;28;20033;-69
2022/01/07 02:34:13;;;;;;;7.88;3.38;;;6.30;92.80;;;;;;5052131;28;20033;-70
2022/01/07 02:36:39;;;;;;;6.03;2.65;;;6.40;92.90;;;;;;5020660;28;20238;-70
2022/01/07 02:39:05;;;;;;;6.03;3.15;;;6.30;92.90;;;;;;5031518;28;20029;-69
2022/01/07 02:41:31;;;;;;;8.25;3.30;;;6.30;92.90;;;;;;5026751;28;20046;-70
2022/01/07 02:43:57;;;;;;;7.50;2.95;;;6.30;93.00;;;;;;5037148;28;20421;-69
2022/01/07 02:46:22;;;;;;;8.32;3.17;;;6.30;92.90;;;;;;5039386;28;20034;-70
2022/01/07 02:48:48;;;;;;;7.65;3.17;;;6.30;92.90;;;;;;5037257;28;20049;-70
2022/01/07 02:51:14;;;;;;;6.15;2.67;;;6.20;92.90;;;;;;5051994;28;20064;-70
2022/01/07 02:53:39;;;;;;;6.85;3.35;;;6.20;93.00;;;;;;5025328;28;20037;-70
2022/01/07 02:56:05;;;;;;;4.07;2.50;;;6.20;93.20;;;;;;5025775;28;20068;-69
2022/01/07 02:58:31;;;;;;;11.27;2.67;;;6.20;93.20;;;;;;5029156;28;20030;-69
2022/01/07 03:00:57;;;;;;;7.05;1.55;;;6.10;93.20;;;;;;5038878;28;20014;-70
2022/01/07 03:03:31;;;;;;;10.05;2.72;;;6.10;93.30;;;;;;5047243;28;20389;-69
2022/01/07 03:05:57;;;;;;;6.05;3.13;;;6.20;93.20;;;;;;5037238;28;20025;-69
2022/01/07 03:08:23;;;;;;;1.45;1.25;;;6.10;93.20;;;;;;5035405;28;20036;-70
2022/01/07 03:10:49;;;;;;;6.10;3.00;;;6.10;93.20;;;;;;5027433;28;20446;-70
2022/01/07 03:13:14;;;;;;;5.38;2.65;;;6.10;93.20;;;;;;5055794;28;20025;-70
2022/01/07 03:15:40;;;;;;;3.47;2.58;;;6.10;93.20;;;;;;5029892;28;20386;-70
2022/01/07 03:18:07;;;;;;;5.53;3.05;;;6.10;93.20;;;;;;5040375;28;20079;-69
2022/01/07 03:20:38;;;;;;;6.95;3.30;;;6.10;93.20;;;;;;5016159;28;20045;-69
2022/01/07 03:23:09;;;;;;;3.58;2.30;;;6.10;93.20;;;;;;5028385;28;20029;-69
2022/01/07 03:25:35;;;;;;;3.63;2.20;;;6.10;93.30;;;;;;5031858;28;20458;-69
2022/01/07 03:28:01;;;;;;;5.80;3.05;;;6.10;93.30;;;;;;5053913;28;20104;-70
2022/01/07 03:30:27;;;;;;;3.88;2.53;;;6.10;93.50;;;;;;5055114;28;20092;-69
2022/01/07 03:32:53;;;;;;;6.45;2.85;;;6.10;93.20;;;;;;5046959;28;20029;-69
2022/01/07 03:35:18;;;;;;;9.43;3.15;;;6.00;93.30;;;;;;5041820;28;20115;-69
2022/01/07 03:37:45;;;;;;;4.00;2.22;;;6.10;93.30;;;;;;5028632;28;20028;-69
2022/01/07 03:40:12;;;;;;;4.25;2.60;;;6.00;93.30;;;;;;5036089;28;20030;-69
2022/01/07 03:42:39;;;;;;;4.07;2.70;;;6.10;93.40;;;;;;5037783;28;20458;-69
2022/01/07 03:45:06;;;;;;;5.75;3.08;;;6.00;93.30;;;;;;5035520;28;20045;-70
2022/01/07 03:47:32;;;;;;;6.47;3.53;;;6.00;93.30;;;;;;5044957;28;20034;-69
2022/01/07 03:49:57;;;;;;;8.75;4.30;;;6.00;93.30;;;;;;5036203;28;20041;-69
2022/01/07 03:52:23;;;;;;;11.07;3.47;;;6.10;93.30;;;;;;5045563;28;20037;-70
2022/01/07 03:54:50;;;;;;;7.60;2.92;;;6.00;93.20;;;;;;5014832;28;20038;-70
2022/01/07 03:57:17;;;;;;;4.07;2.60;;;6.00;93.20;;;;;;5050375;28;20429;-70
2022/01/07 03:59:43;;;;;;;7.38;3.85;;;6.00;93.30;;;;;;5054389;28;20500;-69
2022/01/07 04:02:08;;;;;;;8.35;4.32;;;6.00;93.40;;;;;;5054269;28;20056;-70
2022/01/07 04:04:34;;;;;;;10.05;4.05;;;5.90;93.40;;;;;;5035595;28;20056;-70
2022/01/07 04:07:00;;;;;;;5.70;3.08;;;5.90;93.40;;;;;;5039825;28;20417;-70
2022/01/07 04:09:25;;;;;;;5.85;3.58;;;5.90;93.50;;;;;;5014690;28;20394;-69
2022/01/07 04:11:52;;;;;;;4.50;3.13;;;5.90;93.50;;;;;;5014992;28;20026;-69
2022/01/07 04:14:18;;;;;;;6.80;3.38;;;5.90;93.60;;;;;;5047444;28;20037;-69
2022/01/07 04:16:43;;;;;;;6.80;4.35;;;5.90;93.60;;;;;;5048540;28;20036;-69
2022/01/07 04:19:12;;;;;;;8.45;3.67;;;5.90;93.60;;;;;;5053013;28;20032;-70
2022/01/07 04:21:37;;;;;;;8.75;4.32;;;5.80;93.50;;;;;;5042688;28;20026;-70
2022/01/07 04:24:03;;;;;;;6.18;3.42;;;5.90;93.60;;;;;;5013751;28;20032;-69
2022/01/07 04:26:29;;;;;;;7.82;4.07;;;5.90;93.60;;;;;;5040515;28;20397;-69
2022/01/07 04:28:54;;;;;;;8.00;4.32;;;5.80;93.60;;;;;;5026494;28;20034;-69
2022/01/07 04:31:20;;;;;;;6.25;3.58;;;5.90;93.70;;;;;;5052723;28;20041;-69
2022/01/07 04:33:46;;;;;;;7.75;4.30;;;5.80;93.70;;;;;;5053924;28;20025;-69
2022/01/07 04:36:11;;;;;;;6.03;4.38;;;5.80;93.80;;;;;;5053684;28;20025;-69
2022/01/07 04:38:37;;;;;;;9.07;4.88;;;5.80;93.80;;;;;;5052750;28;20075;-69
2022/01/07 04:41:02;;;;;;;5.30;3.38;;;5.70;93.80;;;;;;5052336;28;20029;-69
2022/01/07 04:43:28;;;;;;;6.05;3.95;;;5.80;93.90;;;;;;5040909;28;20026;-70
2022/01/07 04:45:54;;;;;;;6.43;3.50;;;5.70;93.90;;;;;;5026110;28;20028;-69
2022/01/07 04:48:19;;;;;;;7.57;3.88;;;5.70;93.90;;;;;;5051667;28;20079;-69
2022/01/07 04:50:45;;;;;;;5.78;4.00;;;5.70;94.00;;;;;;5027596;28;20045;-69
2022/01/07 04:53:11;;;;;;;6.07;3.90;;;5.70;94.20;;;;;;5052549;28;20025;-69
2022/01/07 04:55:37;;;;;;;5.88;3.63;;;5.70;94.00;;;;;;5039370;28;20036;-69
2022/01/07 04:58:06;;;;;;;11.40;4.30;;;5.70;94.00;;;;;;5013433;28;20058;-70
2022/01/07 05:00:35;;;;;;;8.48;4.05;;;5.70;94.00;;;;;;5029658;28;20044;-69
2022/01/07 05:03:01;;;;;;;7.03;3.78;;;5.70;94.00;;;;;;5051584;28;20025;-69
2022/01/07 05:05:27;;;;;;;6.35;3.83;;;5.70;94.10;;;;;;5038256;28;20397;-69
2022/01/07 05:07:52;;;;;;;7.82;4.38;;;5.70;94.10;;;;;;5045029;28;20120;-69
2022/01/07 05:10:18;;;;;;;6.68;3.53;;;5.70;94.20;;;;;;5052944;28;20202;-69
2022/01/07 05:12:44;;;;;;;8.52;4.65;;;5.70;94.20;;;;;;5053103;28;20541;-69
2022/01/07 05:15:12;;;;;;;12.52;4.40;;;5.70;94.20;;;;;;5037565;28;20048;-69
2022/01/07 05:17:37;;;;;;;9.43;4.72;;;5.70;94.30;;;;;;5041924;28;20025;-69
2022/01/07 05:20:03;;;;;;;9.23;4.60;;;5.70;94.30;;;;;;5037379;28;20048;-69
2022/01/07 05:22:29;;;;;;;8.32;4.20;;;5.70;94.30;;;;;;5039828;28;20044;-69
2022/01/07 05:24:55;;;;;;;6.60;3.75;;;5.70;94.30;;;;;;5038699;28;20473;-69
2022/01/07 05:27:21;;;;;;;7.13;4.28;;;5.70;94.30;;;;;;5033251;28;20109;-69
2022/01/07 05:29:47;;;;;;;9.68;4.20;;;5.60;94.30;;;;;;5019030;28;20043;-69
2022/01/07 05:32:13;;;;;;;9.55;4.38;;;5.60;94.40;;;;;;5052353;28;20108;-69
2022/01/07 05:34:38;;;;;;;5.50;3.45;;;5.70;94.40;;;;;;5023925;28;20034;-70
2022/01/07 05:37:04;;;;;;;7.28;4.30;;;5.70;94.40;;;;;;5052803;28;20041;-69
2022/01/07 05:39:30;;;;;;;7.15;3.97;;;5.70;94.40;;;;;;5036176;28;20040;-69
2022/01/07 05:41:57;;;;;;;5.85;3.50;;;5.60;94.40;;;;;;5021533;28;20084;-69
2022/01/07 05:44:23;;;;;;;7.90;4.72;;;5.60;94.50;;;;;;5041252;28;20068;-69
2022/01/07 05:46:49;;;;;;;6.10;4.38;;;5.70;94.50;;;;;;5035518;28;20053;-69
2022/01/07 05:49:14;;;;;;;7.65;4.65;;;5.70;94.50;;;;;;5041468;28;20042;-69
2022/01/07 05:51:41;;;;;;;8.45;4.63;;;5.70;94.50;;;;;;5012846;28;20050;-69
2022/01/07 05:54:08;;;;;;;6.53;4.38;;;5.60;94.60;;;;;;5050070;28;20075;-69
2022/01/07 05:56:34;;;;;;;7.95;4.38;;;5.60;94.70;;;;;;5040046;28;20148;-70
2022/01/07 05:59:00;;;;;;;8.18;4.60;;;5.60;94.80;;;;;;5032550;28;20098;-70
2022/01/07 06:01:25;;;;;;;7.40;3.92;;;5.60;94.80;;;;;;5019776;28;20129;-69
2022/01/07 06:03:51;;;;;;;6.03;4.05;;;5.60;94.80;;;;;;5042567;28;20021;-70
2022/01/07 06:06:16;;;;;;;6.22;4.05;;;5.50;94.90;;;;;;5038241;28;20037;-71
2022/01/07 06:08:42;;;;;;;7.55;4.22;;;5.60;94.90;;;;;;5032992;28;20032;-70
2022/01/07 06:11:08;;;;;;;11.02;5.57;;;5.60;95.20;;;;;;5034282;28;20091;-70
2022/01/07 06:13:33;;;;;;;6.10;3.80;;;5.60;95.00;;;;;;5011825;28;20030;-70
2022/01/07 06:15:59;;;;;;;8.07;4.88;;;5.60;95.00;;;;;;5017506;28;20029;-70
2022/01/07 06:18:25;;;;;;;11.20;5.07;;;5.50;95.10;;;;;;5011237;28;20026;-70
2022/01/07 06:20:50;;;;;;;7.45;4.63;;;5.60;95.10;;;;;;5012061;28;20167;-69
2022/01/07 06:23:16;;;;;;;14.73;4.70;;;5.60;95.20;;;;;;5014596;28;20401;-71
2022/01/07 06:25:48;;;;;;;10.95;5.10;;;5.60;95.10;;;;;;5010989;28;20083;-69
2022/01/07 06:28:14;;;;;;;9.13;4.55;;;5.60;95.20;;;;;;5014628;28;20033;-70
2022/01/07 06:30:40;;;;;;;6.40;4.53;;;5.60;95.20;;;;;;5013959;28;20038;-70
2022/01/07 06:33:06;;;;;;;10.70;5.38;;;5.60;95.20;;;;;;5011969;28;20485;-69
2022/01/07 06:35:31;;;;;;;11.25;4.43;;;5.60;95.20;;;;;;5014402;28;20468;-69
2022/01/07 06:37:57;;;;;;;10.82;5.13;;;5.60;95.20;;;;;;5011261;28;20113;-70
2022/01/07 06:40:23;;;;;;;10.73;5.35;;;5.60;95.20;;;;;;5011982;28;20049;-70
2022/01/07 06:42:48;;;;;;;7.97;4.53;;;5.70;95.20;;;;;;5015540;28;20026;-70
2022/01/07 06:45:14;;;;;;;10.80;4.90;;;5.70;95.20;;;;;;5014817;28;20037;-70
2022/01/07 06:47:39;;;;;;;7.43;4.53;;;5.70;95.20;;;;;;5015369;28;20061;-69
2022/01/07 06:50:06;;;;;;;8.38;5.15;;;5.70;95.30;;;;;;5018195;28;20042;-69
2022/01/07 06:52:32;;;;;;;7.65;5.00;;;5.70;95.30;;;;;;5014642;28;20033;-69
2022/01/07 06:54:58;;;;;;;7.97;4.32;;;5.70;95.30;;;;;;5015445;28;20373;-70
2022/01/07 06:57:23;;;;;;;8.23;5.47;;;5.70;95.30;;;;;;5015477;28;20030;-70
2022/01/07 06:59:49;;;;;;;8.52;4.53;;;5.60;95.30;;;;;;5014645;28;20033;-69
2022/01/07 07:02:15;;;;;;;6.75;3.70;;;5.70;95.30;;;;;;5030156;28;20064;-70
2022/01/07 07:04:41;;;;;;;6.82;4.05;;;5.70;95.30;;;;;;5018196;28;20421;-70
2022/01/07 07:07:06;;;;;;;6.95;4.40;;;5.70;95.30;;;;;;5015659;28;20382;-69
2022/01/07 07:09:32;;;;;;;7.57;4.00;;;5.70;95.40;;;;;;5045047;28;20064;-70
2022/01/07 07:12:01;;;;;;;8.00;4.47;;;5.70;95.30;;;;;;5020451;28;20504;-70
2022/01/07 07:14:28;;;;;;;9.02;4.15;;;5.70;95.40;;;;;;5014414;28;20096;-70
2022/01/07 07:16:56;;;;;;;10.07;4.57;;;5.70;95.40;;;;;;5017513;28;20025;-70
2022/01/07 07:19:25;;;;;;;7.55;4.30;;;5.70;95.40;;;;;;5015061;28;20057;-70
2022/01/07 07:21:51;;;;;;;8.07;4.63;;;5.80;95.40;;;;;;5013866;28;20057;-69
2022/01/07 07:24:16;;;;;;;7.88;4.72;;;5.70;95.40;;;;;;5017754;28;20022;-70
2022/01/07 07:26:42;;;;;;;8.23;4.22;;;5.70;95.40;;;;;;5014582;28;20394;-70
2022/01/07 07:29:08;;;;;;;6.70;4.72;;;5.70;95.40;;;;;;5017628;28;20044;-70
2022/01/07 07:31:38;;;;;;;6.60;3.70;;;5.80;95.40;;;;;;5041077;28;20032;-70
2022/01/07 07:36:32;;;;;;;6.65;4.60;;;5.70;95.40;;;;;;5051864;28;20072;-69
2022/01/07 07:39:09;;;;;;;9.90;5.15;;;5.70;95.40;;;;;;5054713;28;20035;-70
2022/01/07 07:41:37;;;;;;;6.53;3.97;;;5.80;95.40;;;;;;5054187;28;20029;-70
2022/01/07 07:44:04;;;;;;;7.00;4.00;;;5.80;95.40;;;;;;5019343;28;20040;-69
2022/01/07 07:46:32;;;;;;;7.63;3.88;;;5.80;95.50;;;;;;5037491;28;20370;-69
2022/01/07 07:49:00;;;;;;;12.50;5.75;;;5.80;95.40;;;;;;5044970;28;20042;-68
2022/01/07 07:51:27;;;;;;;8.05;3.83;;;5.80;95.40;;;;;;5024005;28;20034;-70
2022/01/07 07:53:53;;;;;;;7.90;5.35;;;5.90;95.50;;;;;;5035651;28;20059;-69
2022/01/07 07:56:19;;;;;;;7.40;3.97;;;5.80;95.40;;;;;;5014283;28;20493;-69
2022/01/07 07:58:45;;;;;;;8.75;4.75;;;5.90;95.50;;;;;;5014196;28;20052;-71
2022/01/07 08:01:13;;;;;;;6.47;4.72;;;5.80;95.40;;;;;;5028237;28;20033;-69
2022/01/07 08:03:42;;;;;;;9.00;4.63;;;5.80;95.40;;;;;;5053482;28;20028;-68
2022/01/07 08:06:07;;;;;;;10.52;5.40;;;5.90;95.40;;;;;;5039526;28;20029;-68
2022/01/07 08:08:34;;;;;;;5.93;4.05;;;5.90;95.40;;;;;;5047770;28;20086;-68
2022/01/07 08:11:03;;;;;;;5.47;3.30;;;5.90;95.40;;;;;;5027306;28;20041;-69
2022/01/07 08:13:30;;;;;;;6.72;4.75;;;6.00;95.40;;;;;;5052480;28;20436;-69
2022/01/07 08:15:58;;;;;;;6.13;4.32;;;5.90;95.40;;;;;;5053865;28;20028;-69
2022/01/07 08:18:32;;;;;;;11.65;4.53;;;6.00;95.40;;;;;;5028497;28;20028;-69
2022/01/07 08:21:04;;;;;;;9.30;4.57;;;6.00;95.50;;;;;;5033292;28;20026;-69
2022/01/07 08:23:32;;;;;;;8.98;5.63;;;6.00;95.50;;;;;;5032434;28;20493;-69
2022/01/07 08:25:58;;;;;;;13.35;5.32;;;5.90;95.50;;;;;;5032954;28;20477;-69
2022/01/07 08:28:28;;;;;;;13.40;5.30;;;6.00;95.60;;;;;;5023069;28;20038;-70
2022/01/07 08:36:18;;;;;;;9.63;5.50;;;6.00;95.60;;;;;;5021042;28;20034;-69
2022/01/07 08:38:44;;;;;;;9.57;4.65;;;6.00;95.70;;;;;;5015249;28;20036;-69
2022/01/07 08:41:10;;;;;;;12.70;5.07;;;6.00;95.70;;;;;;5015902;28;20073;-69
2022/01/07 08:43:37;;;;;;;11.02;5.00;;;6.00;95.70;;;;;;5014233;28;20402;-69
2022/01/07 08:46:05;;;;;;;7.50;4.80;;;6.10;95.70;;;;;;5014987;28;20034;-69
2022/01/07 08:48:31;;;;;;;14.80;5.93;;;6.10;95.70;;;;;;5013084;28;20045;-69
2022/01/07 08:50:57;;;;;;;11.20;5.00;;;6.10;95.70;;;;;;5013056;28;20034;-69
2022/01/07 08:53:22;;;;;;;16.35;6.80;;;6.10;95.70;;;;;;5015026;28;20591;-69
2022/01/07 08:55:48;;;;;;;14.30;6.13;;;6.10;95.70;;;;;;5015800;28;20021;-69
2022/01/07 08:58:14;;;;;;;9.60;4.90;;;6.20;95.70;;;;;;5012300;28;20537;-69
2022/01/07 09:00:40;;;;;;;11.05;5.07;;;6.10;95.70;;;;;;5013219;28;20041;-69
2022/01/07 09:03:06;;;;;;;8.93;5.13;;;6.20;95.80;;;;;;5013018;28;20034;-69
2022/01/07 09:05:31;;;;;;;8.77;4.72;;;6.20;96.10;;;;;;5014640;28;20036;-69
2022/01/07 09:07:57;;;;;;;11.05;6.15;;;6.20;95.90;;;;;;5022672;28;20033;-68
2022/01/07 09:10:23;;;;;;;14.35;4.20;;;6.20;95.90;;;;;;5015278;28;20398;-69
2022/01/07 09:12:49;;;;;;;9.95;4.90;;;6.20;95.90;;;;;;5012901;28;20022;-69
2022/01/07 09:15:14;;;;;;;9.32;5.65;;;6.20;95.90;;;;;;5025303;28;20034;-68
2022/01/07 09:17:41;;;;;;;9.18;5.15;;;6.30;95.90;;;;;;5029702;28;20029;-69
2022/01/07 09:20:08;;;;;;;14.68;7.70;;;6.30;95.90;;;;;;5023247;28;20038;-68
2022/01/07 09:22:34;;;;;;;12.55;7.00;;;6.30;95.90;;;;;;5025207;28;20160;-69
2022/01/07 09:25:00;;;;;;;13.15;6.13;;;6.30;95.80;;;;;;5011303;28;20469;-69
2022/01/07 09:27:26;;;;;;;9.32;5.85;;;6.30;95.90;;;;;;5012159;28;20474;-69
2022/01/07 09:29:52;;;;;;;17.30;6.85;;;6.40;95.90;;;;;;5013063;28;20116;-69
2022/01/07 09:32:18;;;;;;;9.82;5.70;;;6.30;95.90;;;;;;5011382;28;20026;-69
2022/01/07 09:34:44;;;;;;;13.48;6.65;;;6.40;95.90;;;;;;5013306;28;20029;-69
2022/01/07 09:37:09;;;;;;;10.27;6.18;;;6.40;95.90;;;;;;5011470;28;20030;-69
2022/01/07 09:39:36;;;;;;;16.50;7.13;;;6.40;96.00;;;;;;5012962;28;20096;-70
2022/01/07 09:42:04;;;;;;;13.40;6.30;;;6.40;96.00;;;;;;5015661;28;20033;-69
2022/01/07 09:44:35;;;;;;;14.55;7.13;;;6.40;96.00;;;;;;5017410;28;20045;-69
2022/01/07 09:47:01;;;;;;;11.35;6.15;;;6.50;96.10;;;;;;5028147;28;20034;-69
2022/01/07 09:49:33;;;;;;;11.27;5.85;;;6.50;96.00;;;;;;5029601;28;20053;-68
2022/01/07 09:51:59;;;;;;;11.88;6.75;;;6.50;96.10;;;;;;5028920;28;20037;-69
2022/01/07 09:54:24;;;;;;;12.15;6.80;;;6.50;96.00;;;;;;5023974;28;20499;-69
2022/01/07 09:56:51;;;;;;;11.45;6.88;;;6.50;96.00;;;;;;5014730;28;20034;-71
2022/01/07 09:59:18;;;;;;;8.55;4.30;;;6.60;96.10;;;;;;5011977;28;20121;-70
2022/01/07 10:01:56;;;;;;;13.70;6.95;;;6.50;96.00;;;;;;5016747;28;20022;-72
2022/01/07 10:04:33;;;;;;;8.68;6.00;;;6.60;96.10;;;;;;5014733;28;20100;-69
2022/01/07 10:07:13;;;;;;;11.73;6.50;;;6.60;96.10;;;;;;5018960;28;20072;-71
2022/01/07 10:09:40;;;;;;;10.23;5.90;;;6.60;96.10;;;;;;5020005;28;20136;-70
2022/01/07 10:12:09;;;;;;;9.15;5.50;;;6.60;96.10;;;;;;5014245;28;20545;-70
2022/01/07 10:14:36;;;;;;;17.42;7.32;;;6.70;96.10;;;;;;5011877;28;20069;-69
2022/01/07 10:17:06;;;;;;;13.45;5.32;;;6.60;96.10;;;;;;5011881;28;20045;-69
2022/01/07 10:19:41;;;;;;;13.52;6.85;;;6.60;96.10;;;;;;5018054;28;20090;-69
2022/01/07 10:22:15;;;;;;;14.98;6.15;;;6.70;96.10;;;;;;5021427;28;20034;-69
2022/01/07 10:24:54;;;;;;;13.90;6.68;;;6.70;96.10;;;;;;5016440;28;20029;-69
2022/01/07 10:27:42;;;;;;;9.15;3.97;;;6.70;96.10;;;;;;5017780;28;20029;-68
2022/01/07 10:30:14;;;;;;;13.20;5.68;;;6.60;96.10;;;;;;5046672;28;20555;-68
2022/01/07 10:32:42;;;;;;;17.45;5.82;;;6.60;96.20;;;;;;5038694;28;20057;-68
2022/01/07 10:35:15;;;;;;;10.25;5.47;;;6.60;96.20;;;;;;5028904;28;20030;-68
2022/01/07 10:38:02;;;;;;;10.68;5.38;;;6.60;96.10;;;;;;5028238;28;20034;-68
2022/01/07 10:40:38;;;;;;;9.25;4.53;;;6.70;96.10;;;;;;5019968;28;20034;-68
2022/01/07 10:43:24;;;;;;;7.97;4.13;;;6.70;96.10;;;;;;5019079;28;20393;-68
2022/01/07 10:45:58;;;;;;;7.63;4.20;;;6.70;96.10;;;;;;5020229;28;20037;-68
2022/01/07 10:48:56;;;;;;;8.73;3.90;;;6.70;96.00;;;;;;5020344;28;20041;-68
2022/01/07 10:51:32;;;;;;;6.63;3.55;;;6.80;96.00;;;;;;5033097;28;20393;-68
2022/01/07 10:54:09;;;;;;;4.10;2.00;;;6.70;96.00;;;;;;5025220;28;20475;-68
2022/01/07 10:56:37;;;;;;;5.28;2.83;;;6.70;96.10;;;;;;5027813;28;20470;-70
2022/01/07 10:59:14;;;;;;;7.28;2.50;;;6.70;96.10;;;;;;5055106;28;20464;-68
2022/01/07 11:01:42;;;;;;;4.05;1.83;;;6.70;96.10;;;;;;5055698;28;20273;-68
2022/01/07 11:04:10;;;;;;;4.95;1.50;;;6.80;96.00;;;;;;5052452;28;20030;-68
2022/01/07 11:06:37;;;;;;;4.43;1.67;;;6.80;95.90;;;;;;5028995;28;20029;-68
2022/01/07 11:09:07;;;;;;;8.45;2.30;;;6.80;95.80;;;;;;5040738;28;20485;-68
2022/01/07 11:11:33;;;;;;;1.75;1.30;;;6.80;95.80;;;;;;5034850;28;20025;-68
2022/01/07 11:14:05;;;;;;;3.28;1.80;;;6.90;95.70;;;;;;5034829;28;20355;-68
2022/01/07 11:16:34;;;;;;;2.93;1.80;;;6.90;95.70;;;;;;5048820;28;20122;-68
2022/01/07 11:19:00;;;;;;;3.53;2.20;;;6.90;95.70;;;;;;5041908;28;20029;-68
2022/01/07 11:21:25;;;;;;;2.65;1.75;;;6.90;95.60;;;;;;5053339;28;20091;-68
2022/01/07 11:23:51;;;;;;;3.60;1.80;;;6.90;95.60;;;;;;5055466;28;20095;-68
2022/01/07 11:26:17;;;;;;;3.85;1.83;;;7.00;95.60;;;;;;5026040;28;20092;-69
2022/01/07 11:28:59;;;;;;;7.07;1.27;;;6.90;95.50;;;;;;5014463;28;20044;-69
2022/01/07 11:31:26;;;;;;;3.65;1.50;;;7.00;95.50;;;;;;5029482;28;20176;-69
2022/01/07 11:34:23;;;;;;;5.53;1.45;;;7.00;95.40;;;;;;5033508;28;20408;-69
2022/01/07 11:36:49;;;;;;;1.85;0.98;;;6.90;95.50;;;;;;5015415;28;20469;-69
2022/01/07 11:39:15;;;;;;;3.85;1.25;;;7.00;95.50;;;;;;5014502;28;20065;-69
2022/01/07 11:41:41;;;;;;;10.68;1.88;;;7.00;95.40;;;;;;5022219;28;20083;-69
2022/01/07 11:44:23;;;;;;;3.80;1.48;;;7.00;95.40;;;;;;5024300;28;20034;-70
2022/01/07 11:46:49;;;;;;;7.13;2.05;;;7.10;95.50;;;;;;5016746;28;20377;-69
2022/01/07 11:49:33;;;;;;;3.17;1.40;;;7.00;95.40;;;;;;5014514;28;20049;-71
2022/01/07 11:52:28;;;;;;;7.68;2.03;;;7.10;95.50;;;;;;5025149;28;20029;-70
2022/01/07 11:55:23;;;;;;;4.72;1.88;;;7.10;95.50;;;;;;5026438;28;20034;-70
2022/01/07 11:58:10;;;;;;;5.38;1.92;;;7.10;95.50;;;;;;5027801;28;20022;-70
2022/01/07 12:00:59;;;;;;;3.75;1.95;;;7.10;95.50;;;;;;5022595;28;20078;-70
2022/01/07 12:03:43;;;;;;;10.15;2.35;;;7.10;95.50;;;;;;5015871;28;20375;-70
2022/01/07 12:06:38;;;;;;;4.40;2.05;;;7.20;95.60;;;;;;5014979;28;20044;-69
2022/01/07 12:09:11;;;;;;;7.40;2.30;;;7.20;95.60;;;;;;5012873;28;20077;-71
2022/01/07 12:11:43;;;;;;;9.48;3.53;;;7.20;95.60;;;;;;5013745;28;20072;-71
2022/01/07 12:14:15;;;;;;;8.73;3.05;;;7.20;95.70;;;;;;5013963;28;20132;-71
2022/01/07 12:16:43;;;;;;;10.82;2.72;;;7.30;95.80;;;;;;5015975;28;20061;-71
2022/01/07 12:19:12;;;;;;;7.63;3.33;;;7.30;95.80;;;;;;5015279;28;20030;-71
2022/01/07 12:21:42;;;;;;;9.13;3.17;;;7.30;95.80;;;;;;5015298;28;20048;-71
2022/01/07 12:24:09;;;;;;;3.30;2.17;;;7.40;95.90;;;;;;5017027;28;20058;-71
2022/01/07 12:26:40;;;;;;;4.40;2.33;;;7.40;95.90;;;;;;5027545;28;20037;-71
2022/01/07 12:29:19;;;;;;;7.28;3.53;;;7.40;95.90;;;;;;5028104;28;20038;-71
2022/01/07 12:31:52;;;;;;;10.95;2.75;;;7.50;95.90;;;;;;5028248;28;20092;-71
2022/01/07 12:34:28;;;;;;;7.32;3.80;;;7.50;96.00;;;;;;5027906;28;20024;-70
2022/01/07 12:37:03;;;;;;;14.40;3.83;;;7.50;95.90;;;;;;5027426;28;20042;-71
2022/01/07 12:39:40;;;;;;;8.57;3.85;;;7.60;96.00;;;;;;5027332;28;20025;-71
2022/01/07 12:42:07;;;;;;;6.53;3.40;;;7.60;96.00;;;;;;5028895;28;20566;-71
2022/01/07 12:44:39;;;;;;;7.50;3.17;;;7.60;96.00;;;;;;5029529;28;20037;-73
2022/01/07 12:47:06;;;;;;;8.30;3.83;;;7.60;96.00;;;;;;5031751;28;20046;-68
2022/01/07 12:49:40;;;;;;;5.40;2.22;;;7.60;95.90;;;;;;5031645;28;20409;-70
2022/01/07 12:52:08;;;;;;;4.65;3.17;;;7.60;95.90;;;;;;5031091;28;20504;-69
2022/01/07 12:54:35;;;;;;;3.65;2.15;;;7.70;95.90;;;;;;5025015;28;20037;-69
2022/01/07 12:57:01;;;;;;;7.25;3.65;;;7.70;95.90;;;;;;5019057;28;20038;-69
2022/01/07 12:59:29;;;;;;;10.82;3.58;;;7.80;95.90;;;;;;5011516;28;20116;-69
2022/01/07 13:01:55;;;;;;;14.60;3.40;;;7.80;95.90;;;;;;5017016;28;20034;-69
2022/01/07 13:04:23;;;;;;;5.82;3.42;;;7.80;95.90;;;;;;5013295;28;20090;-69
2022/01/07 13:06:55;;;;;;;5.53;3.20;;;7.80;95.80;;;;;;5012654;28;20429;-69